Saint Bonnet de Bellac- Haute Vienne - France
Donnes mto: jeudi, 12/01/2012
Date Horaire Temp. E. Hum. E. P.atmo. Pluie Vent Direction Direction Ensoleilleme Solaire P. de rose Temp au vent Rafales
12/01/2012 00:00 0,2 C 90 % 1030,1 hPa 0,0 mm 0,0 km/h (0 Bft) NE 45 0 min 0 W/m -1,2 C 0,2 C 0,0 km/h (0 Bft)
12/01/2012 00:10 0,0 C 90 % 1030,1 hPa 0,0 mm 0,0 km/h (0 Bft) NE 45 0 min 0 W/m -1,4 C 0,0 C 0,0 km/h (0 Bft)
12/01/2012 00:20 0,0 C 90 % 1030,1 hPa 0,0 mm 0,0 km/h (0 Bft) NE 45 0 min 0 W/m -1,4 C 0,0 C 0,0 km/h (0 Bft)
12/01/2012 00:30 -0,1 C 91 % 1030,0 hPa 0,0 mm 0,0 km/h (0 Bft) NE 45 0 min 0 W/m -1,4 C -0,1 C 0,0 km/h (0 Bft)
12/01/2012 00:40 -0,1 C 91 % 1029,9 hPa 0,0 mm 0,0 km/h (0 Bft) E 90 0 min 0 W/m -1,4 C -0,1 C 0,0 km/h (0 Bft)
12/01/2012 00:50 0,1 C 91 % 1029,8 hPa 0,0 mm 1,8 km/h (1 Bft) E-SE 112 0 min 0 W/m -1,2 C 0,1 C 4,0 km/h (1 Bft)
12/01/2012 01:00 0,3 C 91 % 1029,8 hPa 0,0 mm 0,7 km/h (0 Bft) E-NE 67 0 min 0 W/m -1,0 C 0,3 C 0,7 km/h (0 Bft)
12/01/2012 01:10 0,3 C 91 % 1029,8 hPa 0,0 mm 1,1 km/h (1 Bft) E-SE 112 0 min 0 W/m -1,0 C 0,3 C 3,6 km/h (1 Bft)
12/01/2012 01:20 0,3 C 91 % 1029,7 hPa 0,0 mm 0,4 km/h (0 Bft) E 90 0 min 0 W/m -1,0 C 0,3 C 0,4 km/h (0 Bft)
12/01/2012 01:30 0,3 C 91 % 1029,6 hPa 0,0 mm 1,1 km/h (1 Bft) SE 135 0 min 0 W/m -1,0 C 0,3 C 3,2 km/h (1 Bft)
12/01/2012 01:40 0,1 C 91 % 1029,5 hPa 0,0 mm 0,0 km/h (0 Bft) E-SE 112 0 min 0 W/m -1,2 C 0,1 C 0,0 km/h (0 Bft)
12/01/2012 01:50 -0,1 C 92 % 1029,5 hPa 0,0 mm 0,0 km/h (0 Bft) SE 135 0 min 0 W/m -1,2 C -0,1 C 0,0 km/h (0 Bft)
12/01/2012 02:02 -0,2 C 92 % 1029,4 hPa 0,0 mm 0,0 km/h (0 Bft) E 90 0 min 0 W/m -1,3 C -0,2 C 0,0 km/h (0 Bft)
12/01/2012 02:10 -0,2 C 92 % 1029,4 hPa 0,0 mm 0,0 km/h (0 Bft) N 360 0 min 0 W/m -1,3 C -0,2 C 0,0 km/h (0 Bft)
12/01/2012 02:20 -0,4 C 92 % 1029,4 hPa 0,0 mm 0,7 km/h (0 Bft) E-NE 67 0 min 0 W/m -1,5 C -0,4 C 0,7 km/h (0 Bft)
12/01/2012 02:30 -0,5 C 92 % 1029,4 hPa 0,0 mm 0,0 km/h (0 Bft) E-NE 67 0 min 0 W/m -1,6 C -0,5 C 0,0 km/h (0 Bft)
12/01/2012 02:40 -0,6 C 92 % 1029,3 hPa 0,0 mm 0,0 km/h (0 Bft) E-NE 67 0 min 0 W/m -1,7 C -0,6 C 0,0 km/h (0 Bft)
12/01/2012 02:50 -0,6 C 92 % 1029,3 hPa 0,0 mm 0,0 km/h (0 Bft) N 360 0 min 0 W/m -1,7 C -0,6 C 0,0 km/h (0 Bft)
12/01/2012 03:00 -0,7 C 92 % 1029,3 hPa 0,0 mm 0,0 km/h (0 Bft) E-NE 67 0 min 0 W/m -1,8 C -0,7 C 0,0 km/h (0 Bft)
12/01/2012 03:10 -0,7 C 92 % 1029,4 hPa 0,0 mm 0,0 km/h (0 Bft) E-NE 67 0 min 0 W/m -1,8 C -0,7 C 0,0 km/h (0 Bft)
12/01/2012 03:20 -0,8 C 92 % 1029,4 hPa 0,0 mm 0,0 km/h (0 Bft) E-NE 67 0 min 0 W/m -1,9 C -0,8 C 0,0 km/h (0 Bft)
12/01/2012 03:30 -0,9 C 92 % 1029,4 hPa 0,0 mm 0,0 km/h (0 Bft) E-NE 67 0 min 0 W/m -2,0 C -0,9 C 0,0 km/h (0 Bft)
12/01/2012 03:40 -0,9 C 92 % 1029,3 hPa 0,0 mm 0,0 km/h (0 Bft) E-NE 67 0 min 0 W/m -2,0 C -0,9 C 0,0 km/h (0 Bft)
12/01/2012 03:50 -0,9 C 92 % 1029,3 hPa 0,0 mm 0,0 km/h (0 Bft) E-NE 67 0 min 0 W/m -2,0 C -0,9 C 0,0 km/h (0 Bft)
12/01/2012 04:00 -0,9 C 92 % 1029,3 hPa 0,0 mm 0,0 km/h (0 Bft) E-NE 67 0 min 0 W/m -2,0 C -0,9 C 0,0 km/h (0 Bft)
12/01/2012 04:10 -0,9 C 92 % 1029,2 hPa 0,0 mm 0,0 km/h (0 Bft) E-NE 67 0 min 0 W/m -2,0 C -0,9 C 0,0 km/h (0 Bft)
12/01/2012 04:20 -0,9 C 92 % 1029,1 hPa 0,0 mm 0,0 km/h (0 Bft) E-NE 67 0 min 0 W/m -2,0 C -0,9 C 0,0 km/h (0 Bft)
12/01/2012 04:30 -0,9 C 92 % 1029,1 hPa 0,0 mm 0,0 km/h (0 Bft) E-NE 67 0 min 0 W/m -2,0 C -0,9 C 0,0 km/h (0 Bft)
12/01/2012 04:40 -0,9 C 93 % 1029,1 hPa 0,0 mm 0,0 km/h (0 Bft) E-NE 67 0 min 0 W/m -1,9 C -0,9 C 0,0 km/h (0 Bft)
12/01/2012 04:50 -0,9 C 93 % 1029,0 hPa 0,0 mm 0,0 km/h (0 Bft) E-NE 67 0 min 0 W/m -1,9 C -0,9 C 0,0 km/h (0 Bft)
12/01/2012 05:00 -0,9 C 93 % 1028,9 hPa 0,0 mm 0,0 km/h (0 Bft) E-NE 67 0 min 0 W/m -1,9 C -0,9 C 0,0 km/h (0 Bft)
12/01/2012 05:10 -1,1 C 93 % 1028,9 hPa 0,0 mm 0,0 km/h (0 Bft) S-SE 157 0 min 0 W/m -2,1 C -1,1 C 0,0 km/h (0 Bft)
12/01/2012 05:20 -1,1 C 93 % 1028,8 hPa 0,0 mm 0,0 km/h (0 Bft) S-SE 157 0 min 0 W/m -2,1 C -1,1 C 0,0 km/h (0 Bft)
12/01/2012 05:30 -1,2 C 93 % 1028,7 hPa 0,0 mm 0,0 km/h (0 Bft) S-SE 157 0 min 0 W/m -2,2 C -1,2 C 0,0 km/h (0 Bft)
12/01/2012 05:40 -1,4 C 93 % 1028,7 hPa 0,0 mm 0,0 km/h (0 Bft) S-SE 157 0 min 0 W/m -2,4 C -1,4 C 0,0 km/h (0 Bft)
12/01/2012 05:50 -1,5 C 93 % 1028,6 hPa 0,0 mm 0,0 km/h (0 Bft) S-SE 157 0 min 0 W/m -2,5 C -1,5 C 0,0 km/h (0 Bft)
12/01/2012 06:00 -1,6 C 93 % 1028,7 hPa 0,0 mm 0,0 km/h (0 Bft) E-SE 112 0 min 0 W/m -2,6 C -1,6 C 0,0 km/h (0 Bft)
12/01/2012 06:10 -1,7 C 93 % 1028,8 hPa 0,0 mm 0,0 km/h (0 Bft) E-SE 112 0 min 0 W/m -2,7 C -1,7 C 0,0 km/h (0 Bft)
12/01/2012 06:20 -1,8 C 93 % 1028,6 hPa 0,0 mm 0,0 km/h (0 Bft) E-SE 112 0 min 0 W/m -2,8 C -1,8 C 0,0 km/h (0 Bft)
12/01/2012 06:30 -2,0 C 93 % 1028,7 hPa 0,0 mm 0,0 km/h (0 Bft) E-SE 112 0 min 0 W/m -3,0 C -2,0 C 0,0 km/h (0 Bft)
12/01/2012 06:40 -2,2 C 92 % 1028,8 hPa 0,0 mm 0,0 km/h (0 Bft) E-SE 112 0 min 0 W/m -3,3 C -2,2 C 0,0 km/h (0 Bft)
12/01/2012 06:50 -2,3 C 93 % 1028,8 hPa 0,0 mm 0,0 km/h (0 Bft) E-SE 112 0 min 0 W/m -3,3 C -2,3 C 0,0 km/h (0 Bft)
12/01/2012 07:00 -2,5 C 93 % 1028,8 hPa 0,0 mm 0,0 km/h (0 Bft) E-SE 112 0 min 0 W/m -3,5 C -2,5 C 0,0 km/h (0 Bft)
12/01/2012 07:10 -2,7 C 93 % 1028,8 hPa 0,0 mm 0,0 km/h (0 Bft) N-NE 22 0 min 0 W/m -3,7 C -2,7 C 0,0 km/h (0 Bft)
12/01/2012 07:20 -2,7 C 93 % 1028,9 hPa 0,0 mm 0,0 km/h (0 Bft) N-NE 22 0 min 0 W/m -3,7 C -2,7 C 0,0 km/h (0 Bft)
12/01/2012 07:30 -2,7 C 93 % 1029,0 hPa 0,0 mm 0,0 km/h (0 Bft) N-NE 22 0 min 0 W/m -3,7 C -2,7 C 0,0 km/h (0 Bft)
12/01/2012 07:40 -2,7 C 93 % 1029,0 hPa 0,0 mm 0,0 km/h (0 Bft) N-NE 22 0 min 0 W/m -3,7 C -2,7 C 0,0 km/h (0 Bft)
12/01/2012 07:50 -2,6 C 93 % 1029,1 hPa 0,0 mm 0,0 km/h (0 Bft) N 360 0 min 0 W/m -3,6 C -2,6 C 0,0 km/h (0 Bft)
12/01/2012 08:00 -2,5 C 93 % 1029,1 hPa 0,0 mm 0,0 km/h (0 Bft) N 360 0 min 0 W/m -3,5 C -2,5 C 0,0 km/h (0 Bft)
12/01/2012 08:10 -2,3 C 93 % 1029,2 hPa 0,0 mm 0,7 km/h (0 Bft) N 360 0 min 0 W/m -3,3 C -2,3 C 0,7 km/h (0 Bft)
12/01/2012 08:20 -2,2 C 93 % 1029,3 hPa 0,0 mm 0,0 km/h (0 Bft) N-NE 22 0 min 0 W/m -3,2 C -2,2 C 0,0 km/h (0 Bft)
12/01/2012 08:30 -2,2 C 93 % 1029,3 hPa 0,0 mm 0,0 km/h (0 Bft) N-NE 22 0 min 0 W/m -3,2 C -2,2 C 0,0 km/h (0 Bft)
12/01/2012 08:40 -2,2 C 93 % 1029,4 hPa 0,0 mm 0,0 km/h (0 Bft) N-NE 22 0 min 0 W/m -3,2 C -2,2 C 0,0 km/h (0 Bft)
12/01/2012 08:50 -2,2 C 93 % 1029,3 hPa 0,0 mm 0,0 km/h (0 Bft) N-NE 22 2 min 0 W/m -3,2 C -2,2 C 0,0 km/h (0 Bft)
12/01/2012 09:00 -2,3 C 93 % 1029,5 hPa 0,0 mm 0,0 km/h (0 Bft) N-NE 22 2 min 0 W/m -3,3 C -2,3 C 0,0 km/h (0 Bft)
12/01/2012 09:10 -2,4 C 93 % 1029,6 hPa 0,0 mm 0,0 km/h (0 Bft) N-NE 22 2 min 0 W/m -3,4 C -2,4 C 0,0 km/h (0 Bft)
12/01/2012 09:20 -2,4 C 93 % 1029,7 hPa 0,0 mm 0,0 km/h (0 Bft) N-NE 22 2 min 0 W/m -3,4 C -2,4 C 0,0 km/h (0 Bft)
12/01/2012 09:30 -2,4 C 93 % 1029,7 hPa 0,0 mm 0,0 km/h (0 Bft) N-NE 22 2 min 0 W/m -3,4 C -2,4 C 0,0 km/h (0 Bft)
12/01/2012 09:40 -2,4 C 93 % 1029,7 hPa 0,0 mm 0,0 km/h (0 Bft) N-NE 22 2 min 0 W/m -3,4 C -2,4 C 0,0 km/h (0 Bft)
12/01/2012 09:50 -2,2 C 93 % 1029,8 hPa 0,0 mm 0,0 km/h (0 Bft) N-NE 22 2 min 0 W/m -3,2 C -2,2 C 0,0 km/h (0 Bft)
12/01/2012 10:00 -2,2 C 93 % 1029,9 hPa 0,0 mm 0,0 km/h (0 Bft) N-NE 22 2 min 0 W/m -3,2 C -2,2 C 0,0 km/h (0 Bft)
12/01/2012 10:10 -2,0 C 94 % 1029,9 hPa 0,0 mm 0,0 km/h (0 Bft) N-NE 22 2 min 0 W/m -2,8 C -2,0 C 0,0 km/h (0 Bft)
12/01/2012 10:20 -1,7 C 94 % 1029,9 hPa 0,0 mm 0,0 km/h (0 Bft) N-NE 22 2 min 0 W/m -2,5 C -1,7 C 0,0 km/h (0 Bft)
12/01/2012 10:30 -1,4 C 94 % 1030,0 hPa 0,0 mm 0,0 km/h (0 Bft) N-NE 22 2 min 0 W/m -2,2 C -1,4 C 0,0 km/h (0 Bft)
12/01/2012 10:40 -1,2 C 94 % 1030,0 hPa 0,0 mm 0,0 km/h (0 Bft) N-NE 22 2 min 0 W/m -2,0 C -1,2 C 0,0 km/h (0 Bft)
12/01/2012 10:50 -0,9 C 94 % 1030,2 hPa 0,0 mm 0,0 km/h (0 Bft) N-NE 22 2 min 0 W/m -1,7 C -0,9 C 0,0 km/h (0 Bft)
12/01/2012 11:00 -0,6 C 94 % 1030,3 hPa 0,0 mm 0,0 km/h (0 Bft) N-NE 22 2 min 0 W/m -1,4 C -0,6 C 0,0 km/h (0 Bft)
12/01/2012 11:10 -0,4 C 94 % 1030,3 hPa 0,1 mm 0,0 km/h (0 Bft) N-NE 22 2 min 0 W/m -1,2 C -0,4 C 0,0 km/h (0 Bft)
12/01/2012 11:20 -0,2 C 94 % 1030,4 hPa 0,0 mm 0,0 km/h (0 Bft) N 360 2 min 0 W/m -1,0 C -0,2 C 0,0 km/h (0 Bft)
12/01/2012 11:30 0,2 C 94 % 1030,3 hPa 0,0 mm 0,0 km/h (0 Bft) N-NE 22 2 min 0 W/m -0,6 C 0,2 C 0,0 km/h (0 Bft)
12/01/2012 11:40 0,4 C 94 % 1030,3 hPa 0,0 mm 0,0 km/h (0 Bft) N-NE 22 2 min 0 W/m -0,5 C 0,4 C 0,0 km/h (0 Bft)
12/01/2012 11:50 0,8 C 94 % 1030,4 hPa 0,0 mm 0,0 km/h (0 Bft) N-NE 22 2 min 0 W/m -0,1 C 0,8 C 0,0 km/h (0 Bft)
12/01/2012 12:00 0,9 C 94 % 1030,2 hPa 0,0 mm 0,7 km/h (0 Bft) N-NE 22 2 min 0 W/m 0,0 C 0,9 C 3,6 km/h (1 Bft)
12/01/2012 12:10 1,1 C 94 % 1030,2 hPa 0,0 mm 2,2 km/h (1 Bft) N-NE 22 2 min 0 W/m 0,2 C 1,1 C 4,3 km/h (1 Bft)
12/01/2012 12:20 1,3 C 94 % 1030,1 hPa 0,0 mm 0,0 km/h (0 Bft) N-NE 22 2 min 0 W/m 0,4 C 1,3 C 0,0 km/h (0 Bft)
12/01/2012 12:30 1,5 C 94 % 1030,1 hPa 0,0 mm 0,4 km/h (0 Bft) N-NE 22 2 min 0 W/m 0,6 C 1,5 C 0,4 km/h (0 Bft)
12/01/2012 12:40 1,7 C 94 % 1029,9 hPa 0,0 mm 0,0 km/h (0 Bft) N-NE 22 2 min 0 W/m 0,8 C 1,7 C 0,0 km/h (0 Bft)
12/01/2012 12:50 1,9 C 94 % 1029,7 hPa 0,0 mm 0,0 km/h (0 Bft) N-NE 22 2 min 0 W/m 1,0 C 1,9 C 0,0 km/h (0 Bft)
12/01/2012 13:00 2,2 C 94 % 1029,6 hPa 0,0 mm 0,0 km/h (0 Bft) N-NE 22 2 min 0 W/m 1,3 C 2,2 C 0,0 km/h (0 Bft)
12/01/2012 13:10 2,4 C 94 % 1029,5 hPa 0,0 mm 1,4 km/h (1 Bft) N-NE 22 2 min 0 W/m 1,5 C 2,4 C 3,2 km/h (1 Bft)
12/01/2012 13:20 2,5 C 94 % 1029,4 hPa 0,0 mm 2,5 km/h (1 Bft) NO 315 2 min 0 W/m 1,6 C 2,5 C 4,0 km/h (1 Bft)
12/01/2012 13:30 2,6 C 94 % 1029,4 hPa 0,0 mm 0,4 km/h (0 Bft) O 270 2 min 0 W/m 1,7 C 2,6 C 3,2 km/h (1 Bft)
12/01/2012 13:40 2,6 C 94 % 1029,5 hPa 0,0 mm 0,7 km/h (0 Bft) NO 315 2 min 0 W/m 1,7 C 2,6 C 0,7 km/h (0 Bft)
12/01/2012 13:50 2,6 C 94 % 1029,6 hPa 0,0 mm 0,4 km/h (0 Bft) N-NO 337 2 min 0 W/m 1,7 C 2,6 C 4,0 km/h (1 Bft)
12/01/2012 14:00 2,6 C 94 % 1029,6 hPa 0,0 mm 0,4 km/h (0 Bft) N-NO 337 2 min 0 W/m 1,7 C 2,6 C 4,0 km/h (1 Bft)
12/01/2012 14:10 2,5 C 94 % 1029,7 hPa 0,0 mm 2,5 km/h (1 Bft) N-NO 337 2 min 0 W/m 1,6 C 2,5 C 3,6 km/h (1 Bft)
12/01/2012 14:20 2,4 C 94 % 1029,6 hPa 0,0 mm 4,3 km/h (1 Bft) N-NO 337 2 min 0 W/m 1,5 C 2,4 C 4,3 km/h (1 Bft)
12/01/2012 14:30 2,3 C 94 % 1029,6 hPa 0,0 mm 0,0 km/h (0 Bft) N-NE 22 2 min 0 W/m 1,4 C 2,3 C 0,0 km/h (0 Bft)
12/01/2012 14:40 2,4 C 94 % 1029,7 hPa 0,0 mm 0,7 km/h (0 Bft) NE 45 2 min 0 W/m 1,5 C 2,4 C 3,6 km/h (1 Bft)
12/01/2012 14:50 2,3 C 94 % 1029,6 hPa 0,0 mm 2,5 km/h (1 Bft) N-NE 22 2 min 0 W/m 1,4 C 2,3 C 3,2 km/h (1 Bft)
12/01/2012 15:00 2,2 C 94 % 1029,5 hPa 0,0 mm 0,0 km/h (0 Bft) NE 45 2 min 0 W/m 1,3 C 2,2 C 0,0 km/h (0 Bft)
12/01/2012 15:10 2,2 C 94 % 1029,5 hPa 0,0 mm 1,1 km/h (1 Bft) N 360 2 min 0 W/m 1,3 C 2,2 C 1,1 km/h (1 Bft)
12/01/2012 15:20 2,3 C 94 % 1029,4 hPa 0,0 mm 0,0 km/h (0 Bft) N-NE 22 2 min 0 W/m 1,4 C 2,3 C 0,0 km/h (0 Bft)
12/01/2012 15:30 2,3 C 94 % 1029,4 hPa 0,0 mm 0,0 km/h (0 Bft) N-NE 22 2 min 0 W/m 1,4 C 2,3 C 0,0 km/h (0 Bft)
12/01/2012 15:40 2,3 C 94 % 1029,5 hPa 0,0 mm 0,7 km/h (0 Bft) E-NE 67 2 min 0 W/m 1,4 C 2,3 C 0,7 km/h (0 Bft)
12/01/2012 15:50 2,3 C 94 % 1029,6 hPa 0,0 mm 0,0 km/h (0 Bft) NE 45 2 min 0 W/m 1,4 C 2,3 C 0,0 km/h (0 Bft)
12/01/2012 16:00 2,3 C 94 % 1029,6 hPa 0,0 mm 0,0 km/h (0 Bft) E-NE 67 2 min 0 W/m 1,4 C 2,3 C 0,0 km/h (0 Bft)
12/01/2012 16:10 2,2 C 94 % 1029,5 hPa 0,0 mm 0,0 km/h (0 Bft) E-NE 67 2 min 0 W/m 1,3 C 2,2 C 0,0 km/h (0 Bft)
12/01/2012 16:20 2,2 C 94 % 1029,4 hPa 0,0 mm 0,0 km/h (0 Bft) E-NE 67 2 min 0 W/m 1,3 C 2,2 C 0,0 km/h (0 Bft)
12/01/2012 16:30 2,2 C 94 % 1029,3 hPa 0,0 mm 0,0 km/h (0 Bft) E-NE 67 2 min 0 W/m 1,3 C 2,2 C 0,0 km/h (0 Bft)
12/01/2012 16:40 2,2 C 94 % 1029,4 hPa 0,0 mm 0,0 km/h (0 Bft) NE 45 2 min 0 W/m 1,3 C 2,2 C 0,0 km/h (0 Bft)
12/01/2012 16:50 2,2 C 94 % 1029,3 hPa 0,0 mm 0,0 km/h (0 Bft) NE 45 2 min 0 W/m 1,3 C 2,2 C 0,0 km/h (0 Bft)
12/01/2012 17:00 2,1 C 94 % 1029,2 hPa 0,0 mm 0,0 km/h (0 Bft) NE 45 2 min 0 W/m 1,2 C 2,1 C 0,0 km/h (0 Bft)
12/01/2012 17:10 2,1 C 94 % 1029,4 hPa 0,0 mm 0,0 km/h (0 Bft) N 360 2 min 0 W/m 1,2 C 2,1 C 0,0 km/h (0 Bft)
12/01/2012 17:20 2,1 C 94 % 1029,3 hPa 0,0 mm 0,0 km/h (0 Bft) N 360 2 min 0 W/m 1,2 C 2,1 C 0,0 km/h (0 Bft)
12/01/2012 17:30 2,0 C 94 % 1029,3 hPa 0,0 mm 0,0 km/h (0 Bft) N-NO 337 0 min 0 W/m 1,1 C 2,0 C 0,0 km/h (0 Bft)
12/01/2012 17:40 1,9 C 94 % 1029,3 hPa 0,0 mm 4,0 km/h (1 Bft) N-NO 337 0 min 0 W/m 1,0 C 1,9 C 4,0 km/h (1 Bft)
12/01/2012 17:50 1,9 C 94 % 1029,4 hPa 0,0 mm 0,0 km/h (0 Bft) N-NO 337 0 min 0 W/m 1,0 C 1,9 C 0,0 km/h (0 Bft)
12/01/2012 18:00 1,8 C 94 % 1029,4 hPa 0,0 mm 0,0 km/h (0 Bft) N-NO 337 0 min 0 W/m 0,9 C 1,8 C 0,0 km/h (0 Bft)
12/01/2012 18:10 1,8 C 94 % 1029,3 hPa 0,0 mm 0,0 km/h (0 Bft) N-NO 337 0 min 0 W/m 0,9 C 1,8 C 0,0 km/h (0 Bft)
12/01/2012 18:20 1,8 C 94 % 1029,6 hPa 0,0 mm 0,0 km/h (0 Bft) N-NO 337 0 min 0 W/m 0,9 C 1,8 C 0,0 km/h (0 Bft)
12/01/2012 18:30 1,8 C 94 % 1029,7 hPa 0,0 mm 0,4 km/h (0 Bft) E-NE 67 0 min 0 W/m 0,9 C 1,8 C 4,3 km/h (1 Bft)
12/01/2012 18:40 1,8 C 94 % 1029,7 hPa 0,0 mm 0,0 km/h (0 Bft) NE 45 0 min 0 W/m 0,9 C 1,8 C 0,0 km/h (0 Bft)
12/01/2012 18:50 1,8 C 94 % 1029,7 hPa 0,0 mm 0,7 km/h (0 Bft) N-NE 22 0 min 0 W/m 0,9 C 1,8 C 4,0 km/h (1 Bft)
12/01/2012 19:00 1,8 C 94 % 1029,8 hPa 0,0 mm 0,0 km/h (0 Bft) E-NE 67 0 min 0 W/m 0,9 C 1,8 C 0,0 km/h (0 Bft)
12/01/2012 19:10 1,8 C 94 % 1030,0 hPa 0,0 mm 0,4 km/h (0 Bft) N-NE 22 0 min 0 W/m 0,9 C 1,8 C 2,9 km/h (1 Bft)
12/01/2012 19:20 1,8 C 94 % 1029,9 hPa 0,0 mm 3,6 km/h (1 Bft) NE 45 0 min 0 W/m 0,9 C 1,8 C 3,6 km/h (1 Bft)
12/01/2012 19:30 1,8 C 94 % 1030,0 hPa 0,0 mm 1,1 km/h (1 Bft) NE 45 0 min 0 W/m 0,9 C 1,8 C 4,0 km/h (1 Bft)
12/01/2012 19:40 1,8 C 94 % 1030,2 hPa 0,0 mm 3,6 km/h (1 Bft) NE 45 0 min 0 W/m 0,9 C 1,8 C 6,8 km/h (2 Bft)
12/01/2012 19:50 1,8 C 94 % 1030,2 hPa 0,0 mm 1,1 km/h (1 Bft) N-NE 22 0 min 0 W/m 0,9 C 1,8 C 3,6 km/h (1 Bft)
12/01/2012 20:00 1,8 C 94 % 1030,3 hPa 0,0 mm 0,0 km/h (0 Bft) NE 45 0 min 0 W/m 0,9 C 1,8 C 0,0 km/h (0 Bft)
12/01/2012 20:10 1,8 C 94 % 1030,2 hPa 0,0 mm 0,0 km/h (0 Bft) NE 45 0 min 0 W/m 0,9 C 1,8 C 0,0 km/h (0 Bft)
12/01/2012 20:20 1,9 C 94 % 1030,1 hPa 0,0 mm 0,0 km/h (0 Bft) NE 45 0 min 0 W/m 1,0 C 1,9 C 0,0 km/h (0 Bft)
12/01/2012 20:30 1,9 C 94 % 1030,2 hPa 0,0 mm 0,0 km/h (0 Bft) NE 45 0 min 0 W/m 1,0 C 1,9 C 0,0 km/h (0 Bft)
12/01/2012 20:40 1,9 C 94 % 1030,2 hPa 0,0 mm 0,0 km/h (0 Bft) NE 45 0 min 0 W/m 1,0 C 1,9 C 0,0 km/h (0 Bft)
12/01/2012 20:50 2,0 C 94 % 1030,3 hPa 0,0 mm 0,0 km/h (0 Bft) N-NE 22 0 min 0 W/m 1,1 C 2,0 C 0,0 km/h (0 Bft)
12/01/2012 21:00 2,1 C 94 % 1030,4 hPa 0,0 mm 1,1 km/h (1 Bft) NE 45 0 min 0 W/m 1,2 C 2,1 C 3,6 km/h (1 Bft)
12/01/2012 21:10 2,1 C 94 % 1030,3 hPa 0,0 mm 0,0 km/h (0 Bft) NE 45 0 min 0 W/m 1,2 C 2,1 C 0,0 km/h (0 Bft)
12/01/2012 21:20 2,2 C 94 % 1030,4 hPa 0,0 mm 1,1 km/h (1 Bft) NE 45 0 min 0 W/m 1,3 C 2,2 C 4,3 km/h (1 Bft)
12/01/2012 21:30 2,2 C 94 % 1030,5 hPa 0,0 mm 0,4 km/h (0 Bft) N-NE 22 0 min 0 W/m 1,3 C 2,2 C 4,0 km/h (1 Bft)
12/01/2012 21:40 2,2 C 94 % 1030,6 hPa 0,0 mm 6,1 km/h (2 Bft) N-NE 22 0 min 0 W/m 1,3 C 0,5 C 10,1 km/h (2 Bft)
12/01/2012 21:50 2,1 C 94 % 1030,5 hPa 0,0 mm 2,5 km/h (1 Bft) NE 45 0 min 0 W/m 1,2 C 2,1 C 4,0 km/h (1 Bft)
12/01/2012 22:00 2,1 C 94 % 1030,6 hPa 0,0 mm 3,2 km/h (1 Bft) NE 45 0 min 0 W/m 1,2 C 2,1 C 6,1 km/h (2 Bft)
12/01/2012 22:10 2,1 C 94 % 1030,7 hPa 0,0 mm 3,2 km/h (1 Bft) E-NE 67 0 min 0 W/m 1,2 C 2,1 C 8,3 km/h (2 Bft)
12/01/2012 22:20 2,1 C 94 % 1030,6 hPa 0,0 mm 1,1 km/h (1 Bft) NE 45 0 min 0 W/m 1,2 C 2,1 C 3,6 km/h (1 Bft)
12/01/2012 22:30 2,1 C 94 % 1030,6 hPa 0,0 mm 5,0 km/h (1 Bft) E-NE 67 0 min 0 W/m 1,2 C 0,8 C 8,3 km/h (2 Bft)
12/01/2012 22:40 2,1 C 94 % 1030,5 hPa 0,0 mm 3,6 km/h (1 Bft) N 360 0 min 0 W/m 1,2 C 2,1 C 6,8 km/h (2 Bft)
12/01/2012 22:50 2,1 C 94 % 1030,6 hPa 0,0 mm 3,6 km/h (1 Bft) E 90 0 min 0 W/m 1,2 C 2,1 C 6,8 km/h (2 Bft)
12/01/2012 23:00 2,0 C 94 % 1030,6 hPa 0,0 mm 1,1 km/h (1 Bft) NE 45 0 min 0 W/m 1,1 C 2,0 C 3,6 km/h (1 Bft)
12/01/2012 23:10 1,9 C 94 % 1030,5 hPa 0,0 mm 2,9 km/h (1 Bft) N-NE 22 0 min 0 W/m 1,0 C 1,9 C 4,3 km/h (1 Bft)
12/01/2012 23:20 1,9 C 94 % 1030,4 hPa 0,0 mm 1,4 km/h (1 Bft) NE 45 0 min 0 W/m 1,0 C 1,9 C 3,6 km/h (1 Bft)
12/01/2012 23:30 1,9 C 94 % 1030,4 hPa 0,0 mm 4,3 km/h (1 Bft) NE 45 0 min 0 W/m 1,0 C 1,9 C 7,6 km/h (2 Bft)
_ Min-Heure 07:40 00:20 06:20 - 21:10 - - - - 07:40 07:40 21:10
Minimum _ -2,7 C 90 % 1028,6 hPa - 0,0 km/h (0 Bft) - - - - -3,7 C -2,7 C 0,0 km/h (0 Bft)
_ Max-Heure 14:00 23:30 22:10 11:10 21:40 - - 17:20 23:30 14:00 14:00 21:40
Maximum _ 2,6 C 94 % 1030,7 hPa 0,1 mm 6,1 km/h
N-NE (2 Bft)
- - 2 min 0 W/m 1,7 C 2,6 C 10,1 km/h
N-NE (2 Bft)
Moyenne _ 0,4 C 93 % 1029,6 hPa #0,1 mm 0,6 km/h (0 Bft) N-NE - #1:44 h 0 W/m -0,5 C 0,4 C 1,2 km/h (1 Bft)
Saint Bonnet de Bellac- Haute Vienne - France